Kekaha, HI

3:33 PM HST on September 21, 2014 (GMT -1000)
Wheeler Army Air Field | Change Station
CLOSE
Current Station
Airport
Location: Wheeler AAF,
Elevation: 837 ft
Nearby Weather Stations

Elev 837 ft 21.48 °N, 158.04 °W | Updated 2 hours ago

Mostly Cloudy
Mostly Cloudy
88 °F
Feels Like 93 °F
N
4
Wind Variable Wind from SE

Today
High -- | Low -- °F
--% Chance of Precip.
Yesterday
High -- | Low -- °F
Precip. -- in
6:27 AM 6:35 PM
Waning Crescent, 4% visible
Pressure 29.99 in
Visibility 7.0 miles
Clouds Few 2200 ft
Mostly Cloudy 3000 ft
Heat Index 93 °F
Dew Point 70 °F
Humidity 55%
Rainfall 0.00 in
Snow Depth Not available.
UV 6 out of 12
Pollen Not available.
Air Quality Not available.
Flu Activity Not available.
METAR PHHI 212255Z 14003KT 7SM FEW022 BKN030 31/21 A2999 RMK A02A SLPNO WND DATA ALSTG/SLP ESTMD

More Conditions Fewer Conditions

Pressure 29.99 in
Visibility 7.0 miles
Clouds Few 2200 ft
Mostly Cloudy 3000 ft
Heat Index 93 °F
Dew Point 70 °F
Humidity 55%
Rainfall 0.00 in
Snow Depth Not available.
UV 6 out of 12
Pollen Not available.
Air Quality Not available.
Flu Activity Not available.
METAR PHHI 212255Z 14003KT 7SM FEW022 BKN030 31/21 A2999 RMK A02A SLPNO WND DATA ALSTG/SLP ESTMD

More Conditions Fewer Conditions

10-Day Weather Forecast

Almanac

Astronomy

Sep. 21, 2014 Rise Set
Actual Time 6:27 AM HST 6:35 PM HST
Civil Twilight 6:05 AM HST 6:58 PM HST
Nautical Twilight 5:39 AM HST 7:24 PM HST
Astronomical Twilight 5:13 AM HST 7:50 PM HST
Moon 4:24 AM HST (9/21) 5:08 PM HST (9/21)
Length of Visible Light 12h 53m
Length of Day
12h 08m
Tomorrow will be 1m 15s shorter.
Waning Crescent, 4% of the Moon is Illuminated
Today
Waning Crescent
Sep 24
New
Oct 1
First Quarter
Oct 8
Full
Oct 15
Last Quarter

Today's Extremes

State Highs State Lows

Community

WunderPhotos

Upload Photos

1,755,346 photos uploaded!

WunderBlogs® & News

Nearby

Snow Depth

Station Depth Elevation
No new snow has been reported.

Earthquake Activity

City Distance Mag. Time & Date
No recent earthquake activity has been reported nearby.
Minimum magnitude displayed is 2.5.

Coastal Water Temperatures

Place Temperature
No Stations Reporting

Nearby Weather Stations